Potawatomi Indian Reservatio, Wisconsin
Current Conditions -  °F | °C
As of 6:53 PM on Thursday 27 Nov 2014 (Local Time) from KASX Reporting Station
Clear Clear  
Wind Chill: -12°   Ceiling: Unl
Heat Index: -2°   Visibility: 10mi
Dew Point: -6°   Wind: 5mph
Humidity: 83%   Direction: 200°SSW
Pressure: 30.37"   Gusts: NA
Location:  46.543°N, 90.8706°W
Report Text: KASX 280053Z AUTO 20004KT 10SM CLR M19/M21 A3037 RMK AO2 SLP311 T11891211
Loading
Personal Weather Stations






























Interactive Weather Map New forecast layout! Learn more

10-Day Weather Forecast

Advertisements
Track Severe Weather on mobile